Solamere
, Park City
Last Weather Update:12/9/2011 9:00:00 AM
Date
ETo
ETc
Rain
Irrigation
Req
Temp
Max
Temp
Min
Temp
Avg
Avg RH
Avg Wind
Avg Solar
inches
inches
incehs
inches
F
F
F
%
%
watts/m2
10/1/2011 0.15" 0.07" 0.00" 0.07" 75.2° 43.9° 60.9° 71.8% 2.8 MPH 203.3w/m2
10/2/2011 0.14" 0.06" 0.00" 0.06" 72.8° 43.7° 57.3° 44.9% 2.6 MPH 201.2w/m2
10/3/2011 0.13" 0.06" 0.02" 0.04" 71.4° 38.3° 57.1° 85.4% 3.2 MPH 180.8w/m2
10/4/2011 0.12" 0.05" 0.21" -0.12" 68.0° 45.2° 54.1° 81.4% 3.4 MPH 205.6w/m2
10/5/2011 0.04" 0.02" 1.11" -0.87" 52.8° 38.2° 45.0° 94.5% 5.2 MPH 72.6w/m2
10/6/2011 0.01" 0.01" 0.23" -0.18" 38.4° 27.0° 31.7° 95.1% 0.4 MPH 21.0w/m2
10/7/2011 0.01" 0.00" 0.06" -0.04" 35.6° 23.9° 31.1° 99.9% 0.3 MPH 18.8w/m2
10/8/2011 0.04" 0.01" 0.13" -0.09" 46.0° 27.0° 34.4° 99.6% 1.0 MPH 78.1w/m2
10/9/2011 0.01" 0.00" 0.00" 0.00" 540.7° 23.3° 28.7° 70.0% 0.5 MPH 82.2w/m2
10/10/2011 0.09" 0.03" 0.00" 0.03" 53.5° 26.5° 37.6° 54.7% 1.5 MPH 158.6w/m2
10/11/2011 0.08" 0.03" 0.02" 0.01" 55.2° 35.0° 43.4° 65.1% 1.9 MPH 126.1w/m2
10/12/2011 0.09" 0.03" 0.01" 0.02" 58.4° 25.2° 41.0° 34.5% 1.1 MPH 127.6w/m2
10/13/2011 0.13" 0.04" 0.00" 0.04" 60.2° 27.5° 40.6° 32.2% 1.3 MPH 184.1w/m2
10/14/2011 0.14" 0.04" 0.00" 0.04" 67.2° 29.2° 44.9° 29.9% 1.0 MPH 188.7w/m2
10/15/2011 0.16" 0.04" 0.00" 0.04" 68.6° 35.8° 52.5° 24.8% 2.0 MPH 188.5w/m2
10/16/2011 0.15" 0.04" 0.00" 0.04" 74.7° 31.5° 50.0° 25.8% 1.5 MPH 182.3w/m2
10/17/2011 0.12" 0.03" 0.22" -0.15" 69.4° 35.8° 48.9° 61.3% 3.3 MPH 147.5w/m2
10/18/2011 0.11" 0.02" 0.00" 0.02" 51.7° 21.6° 34.7° 44.8% 2.1 MPH 181.8w/m2
10/19/2011 0.12" 0.02" 0.00" 0.02" 59.9° 22.1° 37.3° 30.7% 1.2 MPH 183.7w/m2
10/20/2011 0.13" 0.02" 0.00" 0.02" 64.6° 26.0° 40.8° 36.2% 1.5 MPH 178.5w/m2
10/21/2011 0.13" 0.02" 0.00" 0.02" 62.1° 30.7° 42.3° 38.8% 1.3 MPH 175.5w/m2
10/22/2011 0.13" 0.02" 0.00" 0.02" 63.4° 25.5° 40.4° 41.0% 1.5 MPH 170.5w/m2
10/23/2011 0.12" 0.02" 0.00" 0.02" 60.0° 25.2° 39.4° 35.1% 1.7 MPH 167.2w/m2
10/24/2011 0.14" 0.02" 0.00" 0.02" 64.1° 29.7° 47.3° 26.9% 2.4 MPH 171.1w/m2
10/25/2011 0.13" 0.01" 0.00" 0.01" 65.7° 34.3° 47.8° 64.1% 3.1 MPH 147.6w/m2
10/26/2011 0.04" 0.00" 0.00" 0.00" 46.7° 24.9° 32.5° 70.2% 3.2 MPH 62.3w/m2
10/27/2011 0.05" 0.00" 0.00" 0.00" 40.1° 20.3° 31.7° 41.9% 1.8 MPH 386.1w/m2
10/28/2011 0.09" 0.00" 0.00" 0.00" 463.8° 16.0° 36.1° 30.3% 2.1 MPH 347.7w/m2
10/29/2011 0.09" 0.00" 0.00" 0.00" 47.7° 34.7° 42.7° 16.4% 1.4 MPH 225.4w/m2
10/30/2011 0.09" 0.00" 0.00" 0.00" 51.3° 26.4° 43.5° 42.9% 2.2 MPH 441.9w/m2
10/31/2011 0.11" 0.00" 0.00" 0.00" 55.4° 26.2° 46.9° 34.6% 1.8 MPH 398.6w/m2
Totals: 3.08" 0.72" 2.01" -0.89" 540.7° 16.0° 42.7° 52.4% 1.9 MPH 180.8w/m2